Stations météo

Publicité
Vina Del Mar, Chili (85561): Température de l'air & dewpoint: 19.06.2018 10:00:00 - 25.06.2018 10:00:00 (CLT)Vina Del Mar, Chili (85561): Vitesse du vent: 19.06.2018 10:00:00 - 25.06.2018 10:00:00 (CLT)Vina Del Mar, Chili (85561): Direction du vent: 19.06.2018 10:00:00 - 25.06.2018 10:00:00 (CLT)Vina Del Mar, Chili (85561): visibility: 19.06.2018 10:00:00 - 25.06.2018 10:00:00 (CLT)
Date & Time tt [°C] td [°C] ff [km/h] ff [knt] dd vv [km]
25.06.2018 10:00:00 7,0 6,0 8 4 ESE 7
25.06.2018 09:00:00 7,0 6,0 5 3 SE 9
25.06.2018 08:00:00 7,0 6,0 5 3 ENE 9
25.06.2018 07:00:00 7,0 6,0 5 3 SSE 9
25.06.2018 06:00:00 7,0 6,0 8 4 SE 9
25.06.2018 05:00:00 8,0 7,0 5 3 ESE 10
25.06.2018 04:00:00 8,0 7,0 5 3 E 10
25.06.2018 03:00:00 7,0 6,0 8 4 SSE 10
25.06.2018 02:00:00 8,0 7,0 9 5 SSW 10
25.06.2018 01:00:00 9,0 8,0 5 3 SSW 10
25.06.2018 00:00:00 10,0 9,0 5 3 SSW 10
24.06.2018 23:00:00 10,0 8,0 5 3 SSW 10
24.06.2018 22:00:00 9,0 8,0 4 2 SSW 10
24.06.2018 21:00:00 9,0 7,0 9 5 SSW 10
24.06.2018 20:00:00 10,0 8,0 9 5 SW 10
24.06.2018 19:00:00 11,0 8,0 5 3 SW 10
24.06.2018 18:00:00 12,0 9,0 9 5 WSW 10
24.06.2018 17:00:00 13,0 9,0 9 5 WSW 10
24.06.2018 16:00:00 13,0 9,0 15 8 W 10
24.06.2018 15:00:00 13,0 10,0 16 9 WNW 10
24.06.2018 14:00:00 - - - - - -
24.06.2018 13:00:00 14,0 9,0 8 4 N 10
24.06.2018 12:00:00 12,0 10,0 13 7 NNW 10
24.06.2018 11:00:00 10,0 9,0 8 4 NE 10
24.06.2018 10:00:00 9,0 8,0 5 3 NNE 10
24.06.2018 09:00:00 8,0 7,0 0 0 N 10
24.06.2018 08:00:00 8,0 7,0 0 0 N 10
24.06.2018 07:00:00 8,0 7,0 0 0 N 10
24.06.2018 06:00:00 8,0 7,0 0 0 N 10
24.06.2018 05:00:00 8,0 7,0 0 0 N 10
24.06.2018 04:00:00 8,0 6,0 0 0 N 10
24.06.2018 03:00:00 8,0 6,0 0 0 N 10
24.06.2018 02:00:00 8,0 6,0 0 0 N 10
24.06.2018 01:00:00 8,0 6,0 0 0 N 10
24.06.2018 00:00:00 7,0 6,0 0 0 N 10
23.06.2018 23:00:00 7,0 6,0 0 0 N 10
23.06.2018 22:00:00 7,0 6,0 8 4 SSE 10
23.06.2018 21:00:00 8,0 6,0 8 4 SW 10
23.06.2018 20:00:00 9,0 8,0 0 0 N 10
23.06.2018 19:00:00 10,0 8,0 0 0 N 10
23.06.2018 18:00:00 10,0 8,0 5 3 NNW 10
23.06.2018 17:00:00 11,0 8,0 0 0 N 10
23.06.2018 16:00:00 11,0 8,0 5 3 N 10
23.06.2018 15:00:00 10,0 8,0 0 0 N 10
23.06.2018 14:00:00 9,0 8,0 0 0 N 10
23.06.2018 13:00:00 9,0 7,0 4 2 ENE 10
23.06.2018 12:00:00 8,0 6,0 0 0 N 10
23.06.2018 11:00:00 6,0 5,0 5 3 SE 10
23.06.2018 10:00:00 5,0 4,0 0 0 N 10
23.06.2018 09:00:00 4,0 3,0 5 3 SE 10
23.06.2018 08:00:00 5,0 4,0 0 0 N 10
23.06.2018 07:00:00 5,0 4,0 5 3 SSE 10
23.06.2018 06:00:00 - - - - - -
23.06.2018 05:00:00 6,0 4,0 5 3 ESE 10
23.06.2018 04:00:00 6,0 4,0 0 0 N 10
23.06.2018 03:00:00 6,0 4,0 5 3 SSE 10
23.06.2018 02:00:00 6,0 4,0 0 0 N 10
23.06.2018 01:00:00 8,0 7,0 5 3 SSE 10
23.06.2018 00:00:00 9,0 5,0 5 3 E 10
22.06.2018 23:00:00 10,0 6,0 5 3 E 10
22.06.2018 22:00:00 10,0 6,0 5 3 S 10
22.06.2018 21:00:00 9,0 6,0 8 4 SW 10
22.06.2018 20:00:00 11,0 7,0 0 0 N 10
22.06.2018 19:00:00 12,0 7,0 4 2 WSW 10
22.06.2018 18:00:00 13,0 7,0 11 6 NNW 10
22.06.2018 17:00:00 15,0 7,0 9 5 NNW 10
22.06.2018 16:00:00 15,0 8,0 11 6 NNW 10
22.06.2018 15:00:00 15,0 8,0 11 6 NNE 10
22.06.2018 14:00:00 15,0 8,0 11 6 NNW 10
22.06.2018 13:00:00 14,0 7,0 11 6 SSE 10
22.06.2018 12:00:00 11,0 6,0 4 2 N 10
22.06.2018 11:00:00 9,0 6,0 4 2 N 10
22.06.2018 10:00:00 5,0 4,0 0 0 N 10
22.06.2018 09:00:00 5,0 4,0 5 3 E 10
22.06.2018 08:00:00 5,0 3,0 5 3 ENE 10
22.06.2018 07:00:00 5,0 4,0 0 0 N 10
22.06.2018 06:00:00 6,0 4,0 0 0 N 10
22.06.2018 05:00:00 6,0 5,0 0 0 N 10
22.06.2018 04:00:00 6,0 5,0 0 0 N 10
22.06.2018 03:00:00 7,0 5,0 0 0 N 10
22.06.2018 02:00:00 7,0 4,0 5 3 SSE 10
22.06.2018 01:00:00 9,0 6,0 0 0 N 10
22.06.2018 00:00:00 10,0 6,0 0 0 N 10
21.06.2018 23:00:00 10,0 6,0 5 3 SSE 10
21.06.2018 22:00:00 11,0 6,0 0 0 N 10
21.06.2018 21:00:00 12,0 6,0 8 4 NNE 10
21.06.2018 20:00:00 13,0 6,0 8 4 SSE 10
21.06.2018 19:00:00 15,0 7,0 5 3 SSW 10
21.06.2018 18:00:00 18,0 10,0 0 0 N 10
21.06.2018 17:00:00 18,0 9,0 5 3 N 10
21.06.2018 16:00:00 17,0 8,0 11 6 NNW 10
21.06.2018 15:00:00 18,0 9,0 11 6 NNW 10
21.06.2018 14:00:00 18,0 10,0 8 4 NW 10
21.06.2018 13:00:00 17,0 10,0 8 4 NNE 10
21.06.2018 12:00:00 15,0 9,0 5 3 NNE 10
21.06.2018 11:00:00 13,0 7,0 9 5 SE 10
21.06.2018 10:00:00 10,0 6,0 9 5 E 10
21.06.2018 09:00:00 9,0 5,0 9 5 SSE 10
21.06.2018 08:00:00 8,0 6,0 5 3 ESE 10
21.06.2018 07:00:00 9,0 8,0 8 4 E 10
21.06.2018 06:00:00 9,0 8,0 8 4 SE 10
21.06.2018 05:00:00 7,0 6,0 0 0 N 10
21.06.2018 04:00:00 8,0 7,0 0 0 N 10
21.06.2018 03:00:00 9,0 8,0 0 0 N 10
21.06.2018 02:00:00 9,0 8,0 0 0 N 10
21.06.2018 01:00:00 9,0 8,0 0 0 N 10
21.06.2018 00:00:00 9,0 8,0 8 4 SE 10
20.06.2018 23:00:00 8,0 7,0 8 4 SE 10
20.06.2018 22:00:00 8,0 7,0 0 0 N 10
20.06.2018 21:00:00 8,0 7,0 0 0 N 10
20.06.2018 20:00:00 10,0 8,0 5 3 W 10
20.06.2018 19:00:00 11,0 9,0 5 3 W 7
20.06.2018 18:00:00 12,0 9,0 8 4 NNW 7
20.06.2018 17:00:00 12,0 9,0 8 4 NW 7
20.06.2018 16:00:00 12,0 9,0 11 6 NW 4,0
20.06.2018 15:00:00 13,0 8,0 5 3 NNW 4,0
20.06.2018 14:00:00 13,0 9,0 8 4 ENE 4,0
20.06.2018 13:00:00 10,0 8,0 5 3 ENE 3,5
20.06.2018 12:00:00 10,0 8,0 5 3 SSE 2,5
20.06.2018 11:00:00 9,0 8,0 8 4 E 2,0
20.06.2018 10:00:00 9,0 8,0 0 0 N 1,5
20.06.2018 09:00:00 8,0 7,0 0 0 N 0,9
20.06.2018 08:00:00 8,0 7,0 0 0 N 8
20.06.2018 07:00:00 9,0 7,0 0 0 N 8
20.06.2018 06:00:00 9,0 8,0 0 0 N 8
20.06.2018 05:00:00 9,0 7,0 0 0 N 8
20.06.2018 04:00:00 9,0 8,0 0 0 N 8
20.06.2018 03:00:00 9,0 8,0 0 0 N 8
20.06.2018 02:00:00 9,0 8,0 0 0 N 8
20.06.2018 01:00:00 10,0 8,0 0 0 N 8
20.06.2018 00:00:00 10,0 8,0 0 0 N 8
19.06.2018 23:00:00 10,0 8,0 5 3 E 8
19.06.2018 22:00:00 10,0 8,0 0 0 N 5
19.06.2018 21:00:00 10,0 8,0 0 0 N 5
19.06.2018 20:00:00 11,0 9,0 0 0 N 5
19.06.2018 19:00:00 11,0 9,0 0 0 N 5
19.06.2018 18:00:00 11,0 9,0 0 0 N 5
19.06.2018 17:00:00 11,0 9,0 0 0 N 5
19.06.2018 16:00:00 11,0 9,0 0 0 N 4,0
19.06.2018 15:00:00 10,0 9,0 0 0 N 4,0
19.06.2018 14:00:00 10,0 9,0 8 4 ENE 3,5
19.06.2018 13:00:00 9,0 8,0 0 0 N 2,0
19.06.2018 12:00:00 10,0 9,0 0 0 N 2,0
19.06.2018 11:00:00 9,0 8,0 5 3 ENE 2,0
19.06.2018 10:00:00 9,0 8,0 0 0 N 1,5

tt = Température de l'air
td = dewpoint
ff = Vitesse du vent
dd = Direction du vent
vv = visibility

stations d'obs. à proximité